Wetterdaten: Woche 21.03.22 - 27.03.22 (KW12)
Datum Zeit Temp. Aussen Temp. o. S. Temp +5cm Feuchte Auss Luftdruck Regen Sonnenschein Regendauer Solar Windben Empfang
21.03.2022 00:00 6,7 C 5,7 C 1,7 C 89 % 1030,2 hPa 0,0 l/m 0,00 h 0,17 h 0 W/m 1,9 km/h (1 Bft) 96,19 %
21.03.2022 01:00 6,5 C 5,6 C 1,8 C 90 % 1030,3 hPa 0,0 l/m 0,00 h 0,20 h 0 W/m 0,4 km/h (0 Bft) 97,41 %
21.03.2022 02:00 6,4 C 5,6 C 2,2 C 92 % 1030,4 hPa 0,0 l/m 0,00 h 0,03 h 0 W/m 0,7 km/h (0 Bft) 95,06 %
21.03.2022 03:00 6,3 C 5,4 C 2,0 C 93 % 1030,4 hPa 0,0 l/m 0,00 h 0,00 h 0 W/m 0,0 km/h (0 Bft) 99,00 %
21.03.2022 04:00 5,9 C 4,6 C 1,3 C 93 % 1030,3 hPa 0,0 l/m 0,00 h 0,00 h 0 W/m 0,3 km/h (0 Bft) 95,20 %
21.03.2022 05:00 5,4 C 4,4 C 1,1 C 93 % 1030,5 hPa 0,0 l/m 0,00 h 0,00 h 0 W/m 1,5 km/h (1 Bft) 97,95 %
21.03.2022 06:00 5,1 C 3,6 C 0,5 C 94 % 1030,8 hPa 0,2 l/m 0,00 h 0,00 h 7 W/m 0,2 km/h (0 Bft) 97,35 %
21.03.2022 07:00 4,6 C 4,1 C 0,7 C 94 % 1031,2 hPa 0,0 l/m 0,00 h 0,00 h 36 W/m 1,2 km/h (1 Bft) 99,50 %
21.03.2022 08:00 6,0 C 7,2 C 2,4 C 95 % 1031,5 hPa 0,0 l/m 0,27 h 0,00 h 123 W/m 7,7 km/h (2 Bft) 95,87 %
21.03.2022 09:00 9,6 C 12,5 C 6,7 C 80 % 1031,8 hPa 0,0 l/m 0,87 h 0,03 h 290 W/m 14,6 km/h (3 Bft) 97,58 %
21.03.2022 10:00 12,1 C 14,5 C 11,3 C 68 % 1031,7 hPa 0,0 l/m 0,93 h 0,00 h 430 W/m 16,4 km/h (3 Bft) 97,29 %
21.03.2022 11:00 14,5 C 18,7 C 15,8 C 63 % 1031,5 hPa 0,0 l/m 1,00 h 0,00 h 594 W/m 14,6 km/h (3 Bft) 98,36 %
21.03.2022 12:00 16,2 C 19,2 C 13,9 C 59 % 1031,2 hPa 0,0 l/m 1,00 h 0,00 h 638 W/m 14,2 km/h (3 Bft) 98,24 %
21.03.2022 13:00 18,1 C 23,7 C 13,3 C 57 % 1030,9 hPa 0,0 l/m 1,00 h 0,00 h 623 W/m 13,6 km/h (3 Bft) 98,01 %
21.03.2022 14:00 18,9 C 22,9 C 13,8 C 56 % 1030,6 hPa 0,0 l/m 0,90 h 0,00 h 505 W/m 13,7 km/h (3 Bft) 96,58 %
21.03.2022 15:00 19,2 C 24,2 C 13,9 C 55 % 1030,2 hPa 0,0 l/m 1,00 h 0,00 h 431 W/m 9,9 km/h (2 Bft) 98,70 %
21.03.2022 16:00 19,4 C 22,8 C 13,4 C 54 % 1029,9 hPa 0,0 l/m 1,00 h 0,00 h 275 W/m 8,6 km/h (2 Bft) 97,29 %
21.03.2022 17:00 18,6 C 19,0 C 12,2 C 58 % 1029,8 hPa 0,0 l/m 1,00 h 0,00 h 120 W/m 4,6 km/h (1 Bft) 98,01 %
21.03.2022 18:00 17,0 C 14,5 C 9,4 C 65 % 1029,9 hPa 0,0 l/m 0,27 h 0,00 h 26 W/m 0,9 km/h (0 Bft) 97,35 %
21.03.2022 19:00 14,4 C 11,6 C 7,1 C 71 % 1030,2 hPa 0,0 l/m 0,00 h 0,00 h 0 W/m 0,9 km/h (0 Bft) 97,72 %
21.03.2022 20:00 12,2 C 10,1 C 5,6 C 76 % 1030,5 hPa 0,0 l/m 0,00 h 0,00 h 0 W/m 0,1 km/h (0 Bft) 98,10 %
21.03.2022 21:00 10,9 C 9,2 C 4,7 C 79 % 1030,8 hPa 0,0 l/m 0,00 h 0,00 h 0 W/m 0,2 km/h (0 Bft) 97,84 %
21.03.2022 22:00 10,2 C 9,6 C 5,3 C 79 % 1031,1 hPa 0,0 l/m 0,00 h 0,00 h 0 W/m 3,2 km/h (1 Bft) 95,87 %
21.03.2022 23:00 11,0 C 10,2 C 6,4 C 72 % 1031,3 hPa 0,0 l/m 0,00 h 0,00 h 0 W/m 6,4 km/h (2 Bft) 97,49 %
22.03.2022 00:00 10,9 C 9,9 C 6,2 C 70 % 1031,4 hPa 0,0 l/m 0,00 h 0,00 h 0 W/m 8,4 km/h (2 Bft) 97,20 %
22.03.2022 01:00 10,4 C 9,3 C 5,7 C 70 % 1031,6 hPa 0,0 l/m 0,00 h 0,00 h 0 W/m 8,7 km/h (2 Bft) 97,37 %
22.03.2022 02:00 9,8 C 8,7 C 5,1 C 68 % 1031,6 hPa 0,0 l/m 0,00 h 0,00 h 0 W/m 7,8 km/h (2 Bft) 96,80 %
22.03.2022 03:00 9,3 C 8,3 C 4,7 C 68 % 1031,3 hPa 0,0 l/m 0,00 h 0,00 h 0 W/m 10,1 km/h (2 Bft) 99,07 %
22.03.2022 04:00 8,8 C 7,7 C 4,2 C 68 % 1031,4 hPa 0,0 l/m 0,00 h 0,00 h 0 W/m 7,4 km/h (2 Bft) 94,76 %
22.03.2022 05:00 8,1 C 7,1 C 3,5 C 68 % 1031,6 hPa 0,0 l/m 0,00 h 0,00 h 0 W/m 6,0 km/h (2 Bft) 97,37 %
22.03.2022 06:00 7,6 C 6,5 C 3,0 C 68 % 1031,9 hPa 0,0 l/m 0,00 h 0,00 h 12 W/m 5,2 km/h (1 Bft) 99,11 %
22.03.2022 07:00 7,5 C 7,2 C 3,5 C 68 % 1032,2 hPa 0,0 l/m 0,00 h 0,00 h 44 W/m 9,2 km/h (2 Bft) 96,47 %
22.03.2022 08:00 9,5 C 10,1 C 5,6 C 63 % 1032,6 hPa 0,0 l/m 0,30 h 0,00 h 151 W/m 11,8 km/h (2 Bft) 99,44 %
22.03.2022 09:00 12,4 C 15,1 C 9,1 C 55 % 1032,7 hPa 0,0 l/m 0,90 h 0,00 h 313 W/m 14,1 km/h (3 Bft) 98,72 %
22.03.2022 10:00 14,7 C 17,5 C 14,0 C 49 % 1032,5 hPa 0,0 l/m 0,93 h 0,00 h 478 W/m 12,8 km/h (3 Bft) 97,67 %
22.03.2022 11:00 17,2 C 22,0 C 19,0 C 43 % 1032,2 hPa 0,0 l/m 1,00 h 0,00 h 632 W/m 12,3 km/h (3 Bft) 98,08 %
22.03.2022 12:00 18,5 C 21,8 C 16,1 C 41 % 1031,8 hPa 0,0 l/m 1,00 h 0,00 h 672 W/m 11,9 km/h (2 Bft) 96,23 %
22.03.2022 13:00 20,0 C 27,5 C 14,9 C 38 % 1031,3 hPa 0,0 l/m 1,00 h 0,00 h 662 W/m 8,5 km/h (2 Bft) 97,50 %
22.03.2022 14:00 20,7 C 27,1 C 15,0 C 37 % 1030,6 hPa 0,0 l/m 1,00 h 0,00 h 593 W/m 9,4 km/h (2 Bft) 99,07 %
22.03.2022 15:00 21,0 C 28,3 C 15,6 C 37 % 1030,1 hPa 0,0 l/m 1,00 h 0,00 h 479 W/m 8,7 km/h (2 Bft) 96,93 %
22.03.2022 16:00 20,2 C 26,7 C 14,4 C 39 % 1029,6 hPa 0,0 l/m 1,00 h 0,00 h 328 W/m 10,7 km/h (2 Bft) 96,51 %
22.03.2022 17:00 19,2 C 20,9 C 13,6 C 36 % 1029,4 hPa 0,0 l/m 1,00 h 0,00 h 140 W/m 11,6 km/h (2 Bft) 99,00 %
22.03.2022 18:00 17,9 C 15,9 C 10,8 C 38 % 1029,7 hPa 0,0 l/m 0,00 h 0,00 h 18 W/m 3,5 km/h (1 Bft) 96,68 %
22.03.2022 19:00 14,7 C 12,0 C 7,1 C 50 % 1030,0 hPa 0,0 l/m 0,00 h 0,00 h 0 W/m 1,4 km/h (1 Bft) 98,72 %
22.03.2022 20:00 12,2 C 10,1 C 5,2 C 58 % 1030,3 hPa 0,0 l/m 0,00 h 0,00 h 0 W/m 0,0 km/h (0 Bft) 97,36 %
22.03.2022 21:00 10,5 C 8,5 C 3,9 C 64 % 1030,4 hPa 0,0 l/m 0,00 h 0,00 h 0 W/m 0,0 km/h (0 Bft) 95,03 %
22.03.2022 22:00 9,0 C 7,3 C 3,0 C 66 % 1030,5 hPa 0,0 l/m 0,00 h 0,00 h 0 W/m 0,0 km/h (0 Bft) 97,29 %
22.03.2022 23:00 7,8 C 6,5 C 2,3 C 66 % 1030,4 hPa 0,0 l/m 0,00 h 0,00 h 0 W/m 0,0 km/h (0 Bft) 97,49 %
23.03.2022 00:00 6,9 C 5,4 C 1,5 C 69 % 1030,4 hPa 0,0 l/m 0,00 h 0,00 h 0 W/m 0,4 km/h (0 Bft) 96,13 %
23.03.2022 01:00 5,9 C 4,5 C 1,0 C 72 % 1030,3 hPa 0,0 l/m 0,00 h 0,00 h 0 W/m 0,4 km/h (0 Bft) 98,37 %
23.03.2022 02:00 5,2 C 4,2 C 0,6 C 76 % 1030,3 hPa 0,0 l/m 0,00 h 0,00 h 0 W/m 1,5 km/h (1 Bft) 96,01 %
23.03.2022 03:00 6,2 C 5,4 C 1,5 C 71 % 1030,1 hPa 0,0 l/m 0,00 h 0,00 h 0 W/m 3,1 km/h (1 Bft) 97,19 %
23.03.2022 04:00 5,5 C 3,1 C -0,2 C 73 % 1030,2 hPa 0,0 l/m 0,00 h 0,00 h 0 W/m 0,0 km/h (0 Bft) 98,00 %
23.03.2022 05:00 4,5 C 3,9 C 0,4 C 78 % 1030,4 hPa 0,0 l/m 0,00 h 0,00 h 0 W/m 4,5 km/h (1 Bft) 98,72 %
23.03.2022 06:00 4,9 C 4,3 C 1,1 C 76 % 1030,6 hPa 0,0 l/m 0,00 h 0,00 h 10 W/m 7,1 km/h (2 Bft) 95,76 %
23.03.2022 07:00 5,4 C 5,0 C 1,5 C 77 % 1030,9 hPa 0,0 l/m 0,00 h 0,00 h 33 W/m 7,0 km/h (2 Bft) 96,98 %
23.03.2022 08:00 6,3 C 6,9 C 2,6 C 77 % 1031,4 hPa 0,0 l/m 0,30 h 0,00 h 136 W/m 5,1 km/h (1 Bft) 97,30 %
23.03.2022 09:00 10,3 C 14,6 C 7,6 C 66 % 1031,6 hPa 0,0 l/m 0,87 h 0,00 h 315 W/m 6,3 km/h (2 Bft) 95,03 %
23.03.2022 10:00 13,1 C 16,7 C 13,2 C 57 % 1031,6 hPa 0,0 l/m 0,97 h 0,00 h 484 W/m 6,8 km/h (2 Bft) 96,91 %
23.03.2022 11:00 16,5 C 23,0 C 19,0 C 49 % 1031,5 hPa 0,0 l/m 1,00 h 0,00 h 647 W/m 7,6 km/h (2 Bft) 95,69 %
23.03.2022 12:00 18,0 C 21,7 C 15,4 C 44 % 1031,1 hPa 0,0 l/m 1,00 h 0,00 h 687 W/m 9,0 km/h (2 Bft) 97,28 %
23.03.2022 13:00 19,5 C 26,3 C 14,5 C 39 % 1030,7 hPa 0,0 l/m 1,00 h 0,00 h 676 W/m 10,7 km/h (2 Bft) 98,44 %
23.03.2022 14:00 20,1 C 26,8 C 14,4 C 35 % 1030,2 hPa 0,0 l/m 1,00 h 0,00 h 606 W/m 8,9 km/h (2 Bft) 98,08 %
23.03.2022 15:00 19,9 C 26,6 C 15,0 C 36 % 1029,7 hPa 0,0 l/m 1,00 h 0,00 h 478 W/m 11,1 km/h (2 Bft) 96,58 %
23.03.2022 16:00 19,2 C 24,4 C 13,7 C 37 % 1029,3 hPa 0,0 l/m 1,00 h 0,00 h 326 W/m 11,4 km/h (2 Bft) 98,22 %
23.03.2022 17:00 18,5 C 20,4 C 12,7 C 39 % 1029,2 hPa 0,0 l/m 0,97 h 0,00 h 141 W/m 7,6 km/h (2 Bft) 97,72 %
23.03.2022 18:00 17,2 C 14,9 C 9,7 C 43 % 1029,3 hPa 0,0 l/m 0,00 h 0,00 h 20 W/m 2,9 km/h (1 Bft) 97,72 %
23.03.2022 19:00 14,4 C 11,6 C 6,3 C 52 % 1029,7 hPa 0,0 l/m 0,00 h 0,00 h 0 W/m 0,1 km/h (0 Bft) 96,80 %
23.03.2022 20:00 12,0 C 9,5 C 4,7 C 60 % 1029,9 hPa 0,0 l/m 0,00 h 0,00 h 0 W/m 0,1 km/h (0 Bft) 96,87 %
23.03.2022 21:00 10,1 C 8,0 C 3,7 C 66 % 1030,0 hPa 0,0 l/m 0,00 h 0,00 h 0 W/m 0,0 km/h (0 Bft) 98,50 %
23.03.2022 22:00 8,6 C 7,2 C 3,2 C 69 % 1030,0 hPa 0,0 l/m 0,00 h 0,00 h 0 W/m 0,9 km/h (0 Bft) 97,79 %
23.03.2022 23:00 7,7 C 6,3 C 2,2 C 71 % 1029,9 hPa 0,0 l/m 0,00 h 0,00 h 0 W/m 0,6 km/h (0 Bft) 97,93 %
24.03.2022 00:00 6,8 C 5,6 C 1,7 C 73 % 1029,7 hPa 0,0 l/m 0,00 h 0,00 h 0 W/m 0,0 km/h (0 Bft) 96,00 %
24.03.2022 01:00 5,9 C 4,6 C 1,1 C 76 % 1029,5 hPa 0,0 l/m 0,00 h 0,00 h 0 W/m 1,2 km/h (1 Bft) 97,37 %
24.03.2022 02:00 5,3 C 4,3 C 0,9 C 77 % 1029,2 hPa 0,0 l/m 0,00 h 0,00 h 0 W/m 1,2 km/h (1 Bft) 98,13 %
24.03.2022 03:00 4,8 C 3,2 C -0,1 C 79 % 1029,1 hPa 0,0 l/m 0,00 h 0,00 h 0 W/m 0,0 km/h (0 Bft) 96,83 %
24.03.2022 04:00 3,8 C 2,5 C -0,6 C 82 % 1029,1 hPa 0,0 l/m 0,00 h 0,00 h 0 W/m 0,1 km/h (0 Bft) 96,64 %
24.03.2022 05:00 3,2 C 2,1 C -1,0 C 84 % 1029,2 hPa 0,0 l/m 0,00 h 0,00 h 0 W/m 0,6 km/h (0 Bft) 97,08 %
24.03.2022 06:00 2,6 C 1,7 C -1,2 C 86 % 1029,3 hPa 0,0 l/m 0,00 h 0,00 h 11 W/m 0,1 km/h (0 Bft) 96,49 %
24.03.2022 07:00 2,3 C 2,6 C -0,6 C 88 % 1029,5 hPa 0,0 l/m 0,00 h 0,00 h 37 W/m 0,0 km/h (0 Bft) 96,64 %
24.03.2022 08:00 3,7 C 6,4 C 1,8 C 90 % 1029,7 hPa 0,0 l/m 0,40 h 0,00 h 148 W/m 0,6 km/h (0 Bft) 98,15 %
24.03.2022 09:00 9,6 C 15,8 C 8,1 C 72 % 1029,9 hPa 0,0 l/m 0,90 h 0,00 h 311 W/m 4,3 km/h (1 Bft) 98,86 %
24.03.2022 10:00 13,4 C 17,3 C 14,2 C 56 % 1030,0 hPa 0,0 l/m 1,00 h 0,00 h 499 W/m 5,2 km/h (1 Bft) 98,15 %
24.03.2022 11:00 16,2 C 22,6 C 20,2 C 52 % 1029,9 hPa 0,0 l/m 1,00 h 0,00 h 648 W/m 7,1 km/h (2 Bft) 98,15 %
24.03.2022 12:00 17,4 C 20,8 C 15,5 C 45 % 1029,6 hPa 0,0 l/m 1,00 h 0,00 h 687 W/m 8,4 km/h (2 Bft) 98,39 %
24.03.2022 13:00 18,7 C 26,1 C 14,1 C 42 % 1029,1 hPa 0,0 l/m 1,00 h 0,00 h 677 W/m 9,3 km/h (2 Bft) 96,86 %
24.03.2022 14:00 18,8 C 24,8 C 13,9 C 39 % 1028,7 hPa 0,0 l/m 1,00 h 0,00 h 605 W/m 9,1 km/h (2 Bft) 96,65 %
24.03.2022 15:00 19,1 C 26,5 C 14,3 C 37 % 1028,3 hPa 0,0 l/m 1,00 h 0,00 h 495 W/m 9,0 km/h (2 Bft) 99,43 %
24.03.2022 16:00 19,5 C 24,9 C 13,4 C 36 % 1027,9 hPa 0,0 l/m 1,00 h 0,00 h 341 W/m 8,0 km/h (2 Bft) 97,15 %
24.03.2022 17:00 18,7 C 20,4 C 12,8 C 39 % 1027,8 hPa 0,0 l/m 1,00 h 0,00 h 147 W/m 7,0 km/h (2 Bft) 96,94 %
24.03.2022 18:00 16,8 C 15,0 C 10,5 C 45 % 1028,0 hPa 0,0 l/m 0,03 h 0,00 h 25 W/m 5,4 km/h (1 Bft) 98,31 %
24.03.2022 19:00 14,5 C 12,3 C 8,0 C 50 % 1028,4 hPa 0,0 l/m 0,00 h 0,00 h 0 W/m 3,5 km/h (1 Bft) 96,71 %
24.03.2022 20:00 12,5 C 10,2 C 5,8 C 57 % 1028,5 hPa 0,0 l/m 0,00 h 0,00 h 0 W/m 0,4 km/h (0 Bft) 98,50 %
24.03.2022 21:00 10,8 C 8,8 C 4,5 C 61 % 1028,8 hPa 0,0 l/m 0,00 h 0,00 h 0 W/m 0,1 km/h (0 Bft) 98,50 %
24.03.2022 22:00 9,2 C 7,5 C 3,6 C 65 % 1029,0 hPa 0,0 l/m 0,00 h 0,00 h 0 W/m 1,2 km/h (1 Bft) 96,51 %
24.03.2022 23:00 8,2 C 6,8 C 3,0 C 66 % 1029,2 hPa 0,0 l/m 0,00 h 0,00 h 0 W/m 0,1 km/h (0 Bft) 97,01 %
25.03.2022 00:00 7,4 C 5,9 C 2,2 C 68 % 1029,3 hPa 0,0 l/m 0,00 h 0,00 h 0 W/m 0,7 km/h (0 Bft) 98,32 %
25.03.2022 01:00 6,4 C 4,8 C 1,3 C 71 % 1029,3 hPa 0,0 l/m 0,00 h 0,00 h 0 W/m 0,0 km/h (0 Bft) 98,36 %
25.03.2022 02:00 5,5 C 4,2 C 0,9 C 76 % 1029,1 hPa 0,0 l/m 0,00 h 0,00 h 0 W/m 1,1 km/h (0 Bft) 96,79 %
25.03.2022 03:00 4,9 C 3,6 C 0,4 C 80 % 1029,0 hPa 0,0 l/m 0,00 h 0,00 h 0 W/m 0,7 km/h (0 Bft) 96,73 %
25.03.2022 04:00 4,2 C 2,9 C -0,3 C 82 % 1029,2 hPa 0,0 l/m 0,00 h 0,00 h 0 W/m 0,1 km/h (0 Bft) 96,38 %
25.03.2022 05:00 3,5 C 2,7 C -0,6 C 86 % 1029,3 hPa 0,0 l/m 0,00 h 0,00 h 0 W/m 0,0 km/h (0 Bft) 98,29 %
25.03.2022 06:00 3,0 C 2,2 C -1,0 C 87 % 1029,5 hPa 0,0 l/m 0,00 h 0,00 h 13 W/m 0,0 km/h (0 Bft) 97,46 %
25.03.2022 07:00 3,1 C 3,5 C 0,2 C 90 % 1029,8 hPa 0,0 l/m 0,00 h 0,00 h 46 W/m 0,7 km/h (0 Bft) 96,19 %
25.03.2022 08:00 5,3 C 7,3 C 2,8 C 92 % 1030,1 hPa 0,0 l/m 0,43 h 0,00 h 161 W/m 2,3 km/h (1 Bft) 99,07 %
25.03.2022 09:00 10,7 C 16,2 C 6,6 C 76 % 1030,5 hPa 0,0 l/m 0,90 h 0,00 h 307 W/m 5,1 km/h (1 Bft) 97,44 %
25.03.2022 10:00 14,8 C 18,5 C 11,6 C 60 % 1030,8 hPa 0,0 l/m 0,97 h 0,00 h 456 W/m 7,3 km/h (2 Bft) 98,22 %
25.03.2022 11:00 17,2 C 23,1 C 17,1 C 52 % 1030,7 hPa 0,0 l/m 1,00 h 0,00 h 632 W/m 11,7 km/h (2 Bft) 97,94 %
25.03.2022 12:00 17,3 C 19,6 C 13,5 C 49 % 1030,5 hPa 0,0 l/m 0,52 h 0,00 h 403 W/m 13,5 km/h (3 Bft) 95,00 %
25.03.2022 13:00 17,4 C 22,7 C 13,2 C 49 % 1030,0 hPa 0,0 l/m 0,77 h 0,00 h 518 W/m 16,6 km/h (3 Bft) 98,43 %
25.03.2022 14:00 18,6 C 24,6 C 14,0 C 46 % 1029,7 hPa 0,0 l/m 0,93 h 0,00 h 564 W/m 17,4 km/h (3 Bft) 98,70 %
25.03.2022 15:00 18,6 C 25,9 C 14,6 C 46 % 1029,3 hPa 0,0 l/m 1,00 h 0,00 h 472 W/m 16,6 km/h (3 Bft) 96,65 %
25.03.2022 16:00 17,9 C 23,5 C 13,1 C 47 % 1029,0 hPa 0,0 l/m 1,00 h 0,00 h 317 W/m 15,5 km/h (3 Bft) 96,80 %
25.03.2022 17:00 16,9 C 19,2 C 12,4 C 49 % 1028,9 hPa 0,0 l/m 0,97 h 0,00 h 143 W/m 13,8 km/h (3 Bft) 98,79 %
25.03.2022 18:00 15,2 C 14,0 C 10,0 C 52 % 1029,0 hPa 0,0 l/m 0,00 h 0,00 h 24 W/m 7,8 km/h (2 Bft) 94,19 %
25.03.2022 19:00 13,5 C 11,8 C 8,0 C 57 % 1029,4 hPa 0,0 l/m 0,00 h 0,00 h 0 W/m 4,8 km/h (1 Bft) 98,66 %
25.03.2022 20:00 12,1 C 10,4 C 6,5 C 61 % 1029,7 hPa 0,0 l/m 0,00 h 0,00 h 0 W/m 3,2 km/h (1 Bft) 96,94 %
25.03.2022 21:00 10,9 C 9,0 C 5,1 C 65 % 1030,1 hPa 0,0 l/m 0,00 h 0,00 h 0 W/m 1,4 km/h (1 Bft) 97,37 %
25.03.2022 22:00 9,6 C 8,0 C 4,0 C 68 % 1030,6 hPa 0,0 l/m 0,00 h 0,00 h 0 W/m 0,0 km/h (0 Bft) 97,71 %
25.03.2022 23:00 8,6 C 7,1 C 3,1 C 71 % 1030,8 hPa 0,0 l/m 0,00 h 0,00 h 0 W/m 0,1 km/h (0 Bft) 98,08 %
26.03.2022 00:00 7,5 C 5,8 C 2,2 C 74 % 1031,1 hPa 0,0 l/m 0,00 h 0,00 h 0 W/m 0,0 km/h (0 Bft) 97,02 %
26.03.2022 01:00 6,5 C 5,2 C 1,7 C 79 % 1031,2 hPa 0,0 l/m 0,00 h 0,00 h 0 W/m 0,0 km/h (0 Bft) 94,69 %
26.03.2022 02:00 5,7 C 4,3 C 1,0 C 81 % 1031,0 hPa 0,0 l/m 0,00 h 0,00 h 0 W/m 0,0 km/h (0 Bft) 98,66 %
26.03.2022 03:00 4,9 C 3,8 C 0,6 C 83 % 1031,1 hPa 0,0 l/m 0,00 h 0,00 h 0 W/m 0,1 km/h (0 Bft) 97,95 %
26.03.2022 04:00 4,3 C 3,4 C 0,2 C 85 % 1031,0 hPa 0,0 l/m 0,00 h 0,00 h 0 W/m 0,0 km/h (0 Bft) 97,15 %
26.03.2022 05:00 4,1 C 3,1 C -0,2 C 88 % 1031,1 hPa 0,0 l/m 0,00 h 0,00 h 0 W/m 0,1 km/h (0 Bft) 96,87 %
26.03.2022 06:00 3,6 C 2,8 C -0,5 C 88 % 1031,3 hPa 0,0 l/m 0,00 h 0,00 h 13 W/m 0,3 km/h (0 Bft) 96,69 %
26.03.2022 07:00 3,6 C 3,9 C 0,7 C 89 % 1031,9 hPa 0,0 l/m 0,00 h 0,00 h 45 W/m 0,7 km/h (0 Bft) 96,27 %
26.03.2022 08:00 5,5 C 8,0 C 3,2 C 92 % 1032,3 hPa 0,0 l/m 0,50 h 0,00 h 169 W/m 2,9 km/h (1 Bft) 96,37 %
26.03.2022 09:00 11,2 C 16,6 C 7,1 C 77 % 1032,4 hPa 0,0 l/m 0,93 h 0,00 h 319 W/m 5,6 km/h (1 Bft) 95,58 %
26.03.2022 10:00 15,3 C 19,5 C 13,3 C 63 % 1032,5 hPa 0,0 l/m 1,00 h 0,00 h 498 W/m 7,1 km/h (2 Bft) 97,06 %
26.03.2022 11:00 17,6 C 23,3 C 17,9 C 55 % 1032,4 hPa 0,0 l/m 1,00 h 0,00 h 630 W/m 13,2 km/h (3 Bft) 96,58 %
26.03.2022 12:00 18,1 C 22,2 C 15,1 C 52 % 1032,1 hPa 0,0 l/m 1,00 h 0,00 h 672 W/m 16,3 km/h (3 Bft) 99,71 %
26.03.2022 13:00 19,2 C 26,7 C 14,6 C 51 % 1031,6 hPa 0,0 l/m 1,00 h 0,00 h 675 W/m 13,6 km/h (3 Bft) 97,58 %
26.03.2022 14:00 19,8 C 26,5 C 14,9 C 49 % 1031,0 hPa 0,0 l/m 1,00 h 0,00 h 614 W/m 14,8 km/h (3 Bft) 97,72 %
26.03.2022 15:00 19,8 C 27,0 C 15,6 C 48 % 1030,5 hPa 0,0 l/m 1,00 h 0,00 h 490 W/m 17,1 km/h (3 Bft) 97,93 %
26.03.2022 16:00 19,2 C 24,5 C 14,1 C 50 % 1030,2 hPa 0,0 l/m 1,00 h 0,00 h 343 W/m 15,5 km/h (3 Bft) 96,72 %
26.03.2022 17:00 18,4 C 21,0 C 13,5 C 51 % 1030,1 hPa 0,0 l/m 1,00 h 0,00 h 157 W/m 13,8 km/h (3 Bft) 99,11 %
26.03.2022 18:00 16,8 C 15,4 C 11,2 C 54 % 1030,2 hPa 0,0 l/m 0,10 h 0,00 h 24 W/m 7,1 km/h (2 Bft) 96,32 %
26.03.2022 19:00 15,1 C 12,8 C 8,7 C 59 % 1030,4 hPa 0,0 l/m 0,00 h 0,00 h 1 W/m 2,5 km/h (1 Bft) 98,31 %
26.03.2022 20:00 13,4 C 11,6 C 7,2 C 65 % 1030,8 hPa 0,0 l/m 0,00 h 0,00 h 0 W/m 2,2 km/h (1 Bft) 97,56 %
26.03.2022 21:00 12,4 C 11,3 C 7,1 C 70 % 1031,1 hPa 0,0 l/m 0,00 h 0,00 h 0 W/m 5,5 km/h (1 Bft) 97,49 %
26.03.2022 22:00 12,3 C 11,2 C 7,3 C 74 % 1031,4 hPa 0,0 l/m 0,00 h 0,00 h 0 W/m 5,8 km/h (2 Bft) 96,04 %
26.03.2022 23:00 11,5 C 9,9 C 6,2 C 78 % 1031,6 hPa 0,0 l/m 0,00 h 0,00 h 0 W/m 2,9 km/h (1 Bft) 96,55 %
27.03.2022 00:00 10,5 C 9,1 C 5,5 C 81 % 1031,6 hPa 0,0 l/m 0,00 h 0,00 h 0 W/m 2,4 km/h (1 Bft) 98,66 %
27.03.2022 01:00 9,8 C 8,4 C 5,0 C 85 % 1031,6 hPa 0,0 l/m 0,00 h 0,00 h 0 W/m 3,9 km/h (1 Bft) 96,58 %
27.03.2022 03:00 9,4 C 8,0 C 4,7 C 88 % 1031,4 hPa 0,0 l/m 0,00 h 0,00 h 0 W/m 3,4 km/h (1 Bft) 96,57 %
27.03.2022 04:00 8,8 C 7,4 C 4,3 C 90 % 1031,3 hPa 0,0 l/m 0,00 h 0,00 h 0 W/m 4,9 km/h (1 Bft) 98,15 %
27.03.2022 05:00 8,3 C 7,1 C 3,9 C 92 % 1031,1 hPa 0,0 l/m 0,00 h 0,00 h 0 W/m 6,2 km/h (2 Bft) 97,44 %
27.03.2022 06:00 7,7 C 6,8 C 3,5 C 94 % 1031,2 hPa 0,0 l/m 0,00 h 0,00 h 0 W/m 7,1 km/h (2 Bft) 97,28 %
27.03.2022 07:00 8,0 C 7,5 C 4,2 C 95 % 1031,5 hPa 0,0 l/m 0,00 h 0,00 h 7 W/m 8,3 km/h (2 Bft) 97,36 %
27.03.2022 08:00 8,5 C 8,1 C 4,8 C 96 % 1031,8 hPa 0,0 l/m 0,00 h 0,00 h 27 W/m 8,2 km/h (2 Bft) 98,86 %
27.03.2022 09:00 8,8 C 8,8 C 5,4 C 96 % 1032,0 hPa 0,0 l/m 0,00 h 0,00 h 68 W/m 7,2 km/h (2 Bft) 94,02 %
27.03.2022 10:00 9,6 C 10,7 C 6,9 C 96 % 1031,9 hPa 0,0 l/m 0,10 h 0,00 h 175 W/m 7,0 km/h (2 Bft) 99,29 %
27.03.2022 11:00 11,2 C 12,7 C 8,5 C 90 % 1031,9 hPa 0,0 l/m 0,37 h 0,00 h 273 W/m 11,2 km/h (2 Bft) 97,72 %
27.03.2022 12:00 12,8 C 15,4 C 10,3 C 84 % 1031,6 hPa 0,0 l/m 0,90 h 0,00 h 403 W/m 10,7 km/h (2 Bft) 97,49 %
27.03.2022 13:00 15,3 C 20,3 C 12,4 C 76 % 1031,0 hPa 0,0 l/m 1,00 h 0,00 h 666 W/m 12,4 km/h (3 Bft) 96,87 %
27.03.2022 14:00 17,1 C 25,3 C 12,5 C 68 % 1030,3 hPa 0,0 l/m 1,00 h 0,00 h 673 W/m 11,9 km/h (2 Bft) 97,20 %
27.03.2022 15:00 18,2 C 25,7 C 13,1 C 63 % 1029,6 hPa 0,0 l/m 1,00 h 0,00 h 610 W/m 12,5 km/h (3 Bft) 99,28 %
27.03.2022 16:00 18,9 C 27,2 C 14,2 C 59 % 1029,0 hPa 0,0 l/m 1,00 h 0,00 h 498 W/m 10,6 km/h (2 Bft) 97,09 %
27.03.2022 17:00 19,1 C 25,7 C 13,4 C 56 % 1028,5 hPa 0,0 l/m 1,00 h 0,00 h 343 W/m 9,1 km/h (2 Bft) 97,30 %
27.03.2022 18:00 18,3 C 21,2 C 12,9 C 54 % 1028,2 hPa 0,0 l/m 1,00 h 0,00 h 166 W/m 10,9 km/h (2 Bft) 98,12 %
27.03.2022 19:00 16,2 C 14,9 C 10,9 C 56 % 1028,1 hPa 0,0 l/m 0,10 h 0,00 h 21 W/m 10,8 km/h (2 Bft) 97,58 %
27.03.2022 20:00 14,1 C 12,4 C 8,8 C 62 % 1028,2 hPa 0,0 l/m 0,00 h 0,00 h 0 W/m 7,2 km/h (2 Bft) 96,72 %
27.03.2022 21:00 12,8 C 11,3 C 7,8 C 67 % 1028,3 hPa 0,0 l/m 0,00 h 0,00 h 0 W/m 5,5 km/h (1 Bft) 98,72 %
27.03.2022 22:00 11,8 C 10,3 C 6,9 C 70 % 1028,2 hPa 0,0 l/m 0,00 h 0,00 h 0 W/m 4,1 km/h (1 Bft) 96,65 %
27.03.2022 23:00 10,8 C 8,8 C 5,4 C 74 % 1028,1 hPa 0,0 l/m 0,00 h 0,00 h 0 W/m 0,2 km/h (0 Bft) 96,59 %
Min-Datum _ 24.03.22 24.03.22 24.03.22 22.03.22 24.03.22 - - - - 21.03.22 23.03.22
_ Min-Zeit 06:56 05:46 06:26 18:18 17:16 - - - - 00:10 00:02
Minimum _ 2,3 C 1,7 C -1,7 C 34 % 1027,7 hPa - - - - 0,0 km/h (0 Bft) 35,48 %
Max-Datum _ 22.03.22 22.03.22 24.03.22 21.03.22 22.03.22 21.03.22 21.03.22 21.03.22 25.03.22 26.03.22 21.03.22
_ Max-Zeit 16:02 13:54 11:34 08:24 09:16 06:48 12:08 00:04 12:44 15:34 00:00
Maximum _ 21,2 C 30,0 C 21,7 C 96 % 1032,7 hPa 0,2 l/m 0,07 h 0,03 h 774 W/m 32,2 km/h
N-NO (5 Bft)
100,00 %
Durchschnitt _ 11,8 C 12,9 C 7,4 C 67 % 1030,4 hPa #0,2 l/m #62:17 h #26 min. 331 W/m 5,8 km/h (2 Bft) 97,38 %
© 2022 W. Hausmann